Time;durP1;ratioP1;P1;durP2;ratioP2;P2;SDS_P1;SDS_P2;PMS_P1;PMS_P2;Temp;Humidity;BMP_temperature;BMP_pressure;BME280_temperature;BME280_humidity;BME280_pressure;Samples;Min_cycle;Max_cycle;Signal;HPM_P1;HPM_P2
2024/03/05 09:12:14;;;;;;;;;;;;;;;;;;6007885;23;19921;-94
2024/03/05 09:48:06;;;;;;;;;;;;;;;;;;4958109;28;19922;-94
2024/03/05 09:50:33;;;;;;;;;;;;;;;;;;4976971;28;19918;-93
2024/03/05 09:53:01;;;;;;;;;;;;;;;;;;4959644;28;19918;-93
2024/03/05 09:55:27;;;;;;;;;;;;;;;;;;4977069;28;19953;-95
2024/03/05 09:57:53;;;;;;;;;;;;;;;;;;4960337;28;20365;-96
2024/03/05 10:00:20;;;;;;;;;;;;;;;;;;4960354;28;19918;-96
2024/03/05 10:02:50;;;;;;;;;;;;;;;;;;4962486;28;19918;-96
2024/03/05 10:05:16;;;;;;;;;;;;;;;;;;4964084;28;19918;-96
2024/03/05 10:07:42;;;;;;;;;;;;;;;;;;4963165;28;19989;-96
2024/03/05 10:10:11;;;;;;;;;;;;;;;;;;4961431;28;20313;-96
2024/03/05 10:12:40;;;;;;;;;;;;;;;;;;4962183;28;19933;-95
2024/03/05 10:15:18;;;;;;;;;;;;;;;;;;4962444;28;20016;-93
2024/03/05 10:17:44;;;;;;;;;;;;;;;;;;4962664;28;20376;-96
2024/03/05 10:20:23;;;;;;;;;;;;;;;;;;4961446;28;19919;-95
2024/03/05 10:22:52;;;;;;;;;;;;;;;;;;4960464;28;19918;-96
2024/03/05 10:25:17;;;;;;;;;;;;;;;;;;4943844;28;19923;-96
2024/03/05 10:27:49;;;;;;;;;;;;;;;;;;4960510;28;20072;-96
2024/03/05 10:30:22;;;;;;;;;;;;;;;;;;4965876;28;19925;-96
2024/03/05 10:32:59;;;;;;;;;;;;;;;;;;4962103;28;19981;-96
2024/03/05 10:35:24;;;;;;;;;;;;;;;;;;4960600;28;19926;-94
2024/03/05 10:38:07;;;;;;;;;;;;;;;;;;4978338;28;19961;-95
2024/03/05 10:40:34;;;;;;;;;;;;;;;;;;4979884;28;19925;-96
2024/03/05 10:43:02;;;;;;;;;;;;;;;;;;4968832;28;20009;-96
2024/03/05 10:45:27;;;;;;;;;;;;;;;;;;4961150;28;19922;-95
2024/03/05 10:47:53;;;;;;;;;;;;;;;;;;4958613;28;19922;-95
2024/03/05 10:50:18;;;;;;;;;;;;;;;;;;4976824;28;19918;-94
2024/03/05 10:52:45;;;;;;;;;;;;;;;;;;4958572;28;20033;-96
2024/03/05 10:55:11;;;;;;;8.85;3.40;;;;;;;;;;4975471;28;19922;-93
2024/03/05 11:00:26;;;;;;;;;;;;;;;;;;4975733;28;20054;-94
2024/03/05 11:02:52;;;;;;;;;;;;;;;;;;4959083;28;20341;-89
2024/03/05 11:05:18;;;;;;;;;;;;;;;;;;4975531;28;19914;-90
2024/03/05 11:07:47;;;;;;;;;;;;;;;;;;4975429;28;19925;-87
2024/03/05 11:10:13;;;;;;;;;;;;;;;;;;4969502;28;20384;-88
2024/03/05 11:12:40;;;;;;;;;;;;;;;;;;4955852;29;20016;-89
2024/03/05 11:15:09;;;;;;;;;;;;;;;;;;4961398;28;20361;-87
2024/03/05 11:17:35;;;;;;;;;;;;;;;;;;4975313;28;19941;-87
2024/03/05 11:20:01;;;;;;;;;;;;;;;;;;4974996;28;19914;-86
2024/03/05 11:22:26;;;;;;;;;;;;;;;;;;4975365;28;20415;-87
2024/03/05 11:24:56;;;;;;;;;;;;;;;;;;4975211;28;20242;-89
2024/03/05 11:27:29;;;;;;;;;;;;;;;;;;4957745;28;20332;-87
2024/03/05 11:30:11;;;;;;;;;;;;;;;;;;4975071;28;20365;-88
2024/03/05 11:32:37;;;;;;;;;;;;;;;;;;4957604;28;19962;-87
2024/03/05 11:35:03;;;;;;;;;;;;;;;;;;4974842;28;20336;-87
2024/03/05 11:37:44;;;;;;;;;;;;;;;;;;4958543;28;19918;-86
2024/03/05 11:40:11;;;;;;;;;;;;;;;;;;4974899;28;20331;-88
2024/03/05 11:42:37;;;;;;;;;;;;;;;;;;4974129;28;19918;-89
2024/03/05 11:45:03;;;;;;;;;;;;;;;;;;4972832;28;19943;-88
2024/03/05 11:47:29;;;;;;;;;;;;;;;;;;4976489;28;19925;-95
2024/03/05 11:49:57;;;;;;;;;;;;;;;;;;4961522;28;19914;-95
2024/03/05 11:52:24;;;;;;;;;;;;;;;;;;4962904;28;20348;-96
2024/03/05 11:55:00;;;;;;;;;;;;;;;;;;4969801;28;19914;-96
2024/03/05 11:57:26;;;;;;;;;;;;;;;;;;5007298;23;19925;-95
2024/03/05 11:59:52;;;;;;;;;;;;;;;;;;4975165;28;19921;-96
2024/03/05 12:02:20;;;;;;;;;;;;;;;;;;5034002;23;19929;-96
2024/03/05 12:04:48;;;;;;;;;;;;;;;;;;4979467;28;19918;-93
2024/03/05 12:07:14;;;;;;;;;;;;;;;;;;4990936;23;19969;-94
2024/03/05 12:09:46;;;;;;;;;;;;;;;;;;5043965;23;19941;-95
2024/03/05 12:14:50;;;;;;;;;;;;;;;;;;4993947;28;19944;-95
2024/03/05 12:17:40;;;;;;;;;;;;;;;;;;5040903;23;19928;-95
2024/03/05 12:20:35;;;;;;;;;;;;;;;;;;4991354;28;19918;-95
2024/03/05 12:23:24;;;;;;;;;;;;;;;;;;4999750;28;19918;-96
2024/03/05 12:25:53;;;;;;;;;;;;;;;;;;4994378;28;20408;-96
2024/03/05 12:28:19;;;;;;;;;;;;;;;;;;4996818;28;19914;-96
2024/03/05 12:30:50;;;;;;;;;;;;;;;;;;5001014;28;19918;-96
2024/03/05 12:33:19;;;;;;;;;;;;;;;;;;4976276;28;19913;-95
2024/03/05 12:35:48;;;;;;;;;;;;;;;;;;4962679;28;19918;-96
2024/03/05 12:38:13;;;;;;;;;;;;;;;;;;4961508;28;19920;-96
2024/03/05 12:40:41;;;;;;;;;;;;;;;;;;4961814;28;19910;-95
2024/03/05 12:43:08;;;;;;;;;;;;;;;;;;4961241;28;20008;-95
2024/03/05 12:45:34;;;;;;;;;;;;;;;;;;4978499;28;19913;-96
2024/03/05 17:26:45;;;;;;;;;;;;;;;;;;4943743;29;19922;-93
2024/03/05 17:29:11;;;;;;;;;;;;;;;;;;4965489;29;19988;-92
2024/03/05 17:31:36;;;;;;;;;;;;;;;;;;4960512;29;19914;-89
2024/03/05 17:34:01;;;;;;;;;;;;;;;;;;4956092;29;19914;-93
2024/03/05 17:36:29;;;;;;;;;;;;;;;;;;4954434;29;19914;-93
2024/03/05 17:38:55;;;;;;;;;;;;;;;;;;4966875;29;19921;-92
2024/03/05 17:41:22;;;;;;;;;;;;;;;;;;4946621;28;19915;-92
2024/03/05 17:43:48;;;;;;;;;;;;;;;;;;4947765;29;20005;-92
2024/03/05 17:46:14;;;;;;;;;;;;;;;;;;4942443;29;19963;-92
2024/03/05 17:48:39;;;;;;;;;;;;;;;;;;4957807;29;20376;-94
2024/03/05 17:51:09;;;;;;;;;;;;;;;;;;4950521;28;19918;-89
2024/03/05 17:53:35;;;;;;;;;;;;;;;;;;4967833;29;19920;-89
2024/03/05 17:56:05;;;;;;;;;;;;;;;;;;4950324;29;19977;-90
2024/03/05 17:58:33;;;;;;;;;;;;;;;;;;4971433;29;19918;-90
2024/03/05 18:01:00;;;;;;;;;;;;;;;;;;4970394;29;19915;-90
2024/03/05 18:03:34;;;;;;;;;;;;;;;;;;4969393;29;20427;-91
2024/03/05 18:06:00;;;;;;;;;;;;;;;;;;4966904;29;19969;-92
2024/03/05 18:08:26;;;;;;;;;;;;;;;;;;4951532;29;19996;-90
2024/03/05 18:10:51;;;;;;;;;;;;;;;;;;4966499;29;19919;-90
2024/03/05 18:13:18;;;;;;;;;;;;;;;;;;4950798;29;19958;-90
2024/03/05 18:15:45;;;;;;;;;;;;;;;;;;4951349;29;19914;-90
2024/03/05 18:18:13;;;;;;;;;;;;;;;;;;4950938;29;19914;-91
2024/03/05 18:20:43;;;;;;;;;;;;;;;;;;4949235;29;19922;-92
2024/03/05 18:23:08;;;;;;;;;;;;;;;;;;4933832;29;20012;-90
2024/03/05 18:25:35;;;;;;;;;;;;;;;;;;4950328;29;19923;-90
2024/03/05 18:28:00;;;;;;;;;;;;;;;;;;4950208;29;19978;-91
2024/03/05 18:30:31;;;;;;;;;;;;;;;;;;4950080;29;19915;-90
2024/03/05 18:32:59;;;;;;;;;;;;;;;;;;4970722;28;19921;-89
2024/03/05 18:35:26;;;;;;;;;;;;;;;;;;4970615;29;19918;-89
2024/03/05 18:37:54;;;;;;;;;;;;;;;;;;4973219;29;19921;-91
2024/03/05 18:40:21;;;;;;;;;;;;;;;;;;4972043;29;19937;-89
2024/03/05 18:42:47;;;;;;;;;;;;;;;;;;4937296;29;19919;-90
2024/03/05 18:45:16;;;;;;;;;;;;;;;;;;4970120;29;19934;-91
2024/03/05 18:47:47;;;;;;;;;;;;;;;;;;4953792;29;19965;-89
2024/03/05 18:50:18;;;;;;;;;;;;;;;;;;4971344;29;19914;-92
2024/03/05 18:52:46;;;;;;;;;;;;;;;;;;4954335;29;19973;-90
2024/03/05 18:55:16;;;;;;;;;;;;;;;;;;4952906;29;20365;-94
2024/03/05 18:57:44;;;;;;;;;;;;;;;;;;4949989;29;19960;-91
2024/03/05 19:00:18;;;;;;;;;;;;;;;;;;4934927;29;19918;-89
2024/03/05 19:02:56;;;;;;;;;;;;;;;;;;4952250;29;20310;-90
2024/03/05 19:05:21;;;;;;;;;;;;;;;;;;4953346;29;19937;-92
2024/03/05 19:07:48;;;;;;;;;;;;;;;;;;4952254;29;19914;-92
2024/03/05 19:10:17;;;;;;;;;;;;;;;;;;4946287;29;19918;-92
2024/03/05 19:12:46;;;;;;;;;;;;;;;;;;4930044;29;19914;-92
2024/03/05 19:15:13;;;;;;;;;;;;;;;;;;4945022;29;20010;-91
2024/03/05 19:17:43;;;;;;;;;;;;;;;;;;4968994;29;19922;-90
2024/03/05 19:20:09;;;;;;;;;;;;;;;;;;4949650;29;19922;-92
2024/03/05 19:22:35;;;;;;;;;;;;;;;;;;4949037;29;19914;-92
2024/03/05 19:25:00;;;;;;;;;;;;;;;;;;4938920;29;19914;-92
2024/03/05 19:27:26;;;;;;;;;;;;;;;;;;4940541;29;19914;-90
2024/03/05 19:29:56;;;;;;;;;;;;;;;;;;4948709;29;19922;-92
2024/03/05 19:32:25;;;;;;;;;;;;;;;;;;4968090;29;19925;-87
2024/03/05 19:34:50;;;;;;;;;;;;;;;;;;4952692;29;19905;-88
2024/03/05 19:37:17;;;;;;;;;;;;;;;;;;4953721;29;19914;-89
2024/03/05 19:39:43;;;;;;;;;;;;;;;;;;4954591;29;19914;-89
2024/03/05 19:42:10;;;;;;;;;;;;;;;;;;4964942;29;19961;-91
2024/03/05 19:44:35;;;;;;;;;;;;;;;;;;4947620;29;19914;-90
2024/03/05 19:47:01;;;;;;;;;;;;;;;;;;4943142;29;19949;-93
2024/03/05 19:49:27;;;;;;;;;;;;;;;;;;4942043;29;19930;-91
2024/03/05 19:51:55;;;;;;;;;;;;;;;;;;4943536;29;19962;-90
2024/03/05 19:54:21;;;;;;;;;;;;;;;;;;4952564;29;19986;-88
2024/03/05 19:56:48;;;;;;;;;;;;;;;;;;4954779;29;19914;-88
2024/03/05 19:59:13;;;;;;;;;;;;;;;;;;4944663;29;19965;-92
2024/03/05 20:01:39;;;;;;;;;;;;;;;;;;4963600;29;19937;-88
2024/03/05 20:04:27;;;;;;;;;;;;;;;;;;4947183;29;19969;-86
2024/03/05 20:06:59;;;;;;;;;;;;;;;;;;4963290;29;20277;-92
2024/03/05 20:09:28;;;;;;;;;;;;;;;;;;4952006;29;19914;-89
2024/03/05 20:11:54;;;;;;;;;;;;;;;;;;4967374;29;19922;-90
2024/03/05 20:14:19;;;;;;;;;;;;;;;;;;4951579;29;19942;-93
2024/03/05 20:16:46;;;;;;;;;;;;;;;;;;4970097;29;19921;-93
2024/03/05 20:19:14;;;;;;;;;;;;;;;;;;4943163;29;19922;-91
2024/03/05 20:21:49;;;;;;;;;;;;;;;;;;4942735;29;19914;-91
2024/03/05 20:24:15;;;;;;;;;;;;;;;;;;4942713;29;20044;-93
2024/03/05 20:26:41;;;;;;;;;;;;;;;;;;4959246;29;20393;-89
2024/03/05 20:29:10;;;;;;;;;;;;;;;;;;4942180;29;19921;-92
2024/03/05 20:31:41;;;;;;;;;;;;;;;;;;4942183;29;20436;-88
2024/03/05 20:34:12;;;;;;;;;;;;;;;;;;4960207;29;19940;-91
2024/03/05 20:36:37;;;;;;;;;;;;;;;;;;4942627;29;20014;-93
2024/03/05 20:39:10;;;;;;;;;;;;;;;;;;4946235;29;19961;-88
2024/03/05 20:41:39;;;;;;;;;;;;;;;;;;4969596;29;19946;-90
2024/03/05 20:44:09;;;;;;;;;;;;;;;;;;4952346;29;19964;-88
2024/03/05 20:46:38;;;;;;;;;;;;;;;;;;4954087;29;20282;-87
2024/03/05 20:49:13;;;;;;;;;;;;;;;;;;4952830;29;19914;-91
2024/03/05 20:51:41;;;;;;;;;;;;;;;;;;4949865;29;19989;-90
2024/03/05 20:54:10;;;;;;;;;;;;;;;;;;4951357;29;19921;-88
2024/03/05 20:56:48;;;;;;;;;;;;;;;;;;4950599;29;19990;-96
2024/03/05 20:59:16;;;;;;;;;;;;;;;;;;4952383;29;19990;-94
2024/03/05 21:02:08;;;;;;;;;;;;;;;;;;5000339;23;19977;-88
2024/03/05 21:04:36;;;;;;;;;;;;;;;;;;5009352;28;19977;-88
2024/03/05 21:07:06;;;;;;;;;;;;;;;;;;4995887;28;19921;-87
2024/03/05 21:09:31;;;;;;;;;;;;;;;;;;4995236;28;19914;-87
2024/03/05 21:12:13;;;;;;;;;;;;;;;;;;5010691;28;19985;-88
2024/03/05 21:14:41;;;;;;;;;;;;;;;;;;5008189;28;19925;-88
2024/03/05 21:17:15;;;;;;;;;;;;;;;;;;5010907;28;19969;-88
2024/03/05 21:20:09;;;;;;;;;;;;;;;;;;4991099;28;19985;-87
2024/03/05 21:22:40;;;;;;;;;;;;;;;;;;4986306;23;19993;-87
2024/03/05 21:25:27;;;;;;;;;;;;;;;;;;4984298;23;19938;-86
2024/03/05 21:28:01;;;;;;;;;;;;;;;;;;5015200;28;19944;-86
2024/03/05 21:33:12;;;;;;;;;;;;;;;;;;4973793;28;19938;-87
2024/03/05 21:35:49;;;;;;;;;;;;;;;;;;4949858;29;19914;-89
2024/03/05 21:38:15;;;;;;;;;;;;;;;;;;4972161;29;19902;-88
2024/03/05 21:40:42;;;;;;;;;;;;;;;;;;4955262;29;19918;-87
2024/03/05 21:43:08;;;;;;;;;;;;;;;;;;4937493;29;19989;-87
2024/03/05 21:45:43;;;;;;;;;;;;;;;;;;4972276;29;19914;-87
2024/03/05 21:48:20;;;;;;;;;;;;;;;;;;4960544;29;19946;-87
2024/03/05 21:50:47;;;;;;;;;;;;;;;;;;4957053;29;19999;-87
2024/03/05 21:53:15;;;;;;;;;;;;;;;;;;4971271;28;19921;-89
2024/03/05 21:55:48;;;;;;;;;;;;;;;;;;4970018;28;19915;-87
2024/03/05 21:58:28;;;;;;;;;;;;;;;;;;4981451;28;19915;-88
2024/03/05 22:01:04;;;;;;;;;;;;;;;;;;4970097;29;19954;-87
2024/03/05 22:03:36;;;;;;;;;;;;;;;;;;4996040;23;19925;-87
2024/03/05 22:06:21;;;;;;;;;;;;;;;;;;5011272;28;19968;-90
2024/03/05 22:08:50;;;;;;;;;;;;;;;;;;5013012;28;19913;-87
2024/03/05 22:11:17;;;;;;;;;;;;;;;;;;5013535;28;20297;-87
2024/03/05 22:13:42;;;;;;;;;;;;;;;;;;4995769;28;19992;-87
2024/03/05 22:16:29;;;;;;;;;;;;;;;;;;5011784;28;19914;-86
2024/03/05 22:19:09;;;;;;;;;;;;;;;;;;4994961;28;19914;-87
2024/03/05 22:21:41;;;;;;;;;;;;;;;;;;5001822;28;19914;-90
2024/03/05 22:24:07;;;;;;;;;;;;;;;;;;5004801;28;20280;-91
2024/03/05 22:26:32;;;;;;;;;;;;;;;;;;4998362;28;19953;-95
2024/03/05 22:28:57;;;;;;;;;;;;;;;;;;4998175;28;20026;-94
2024/03/05 22:31:23;;;;;;;;;;;;;;;;;;4995151;28;19913;-95
2024/03/05 22:33:49;;;;;;;;;;;;;;;;;;4996781;28;19920;-92
2024/03/05 22:36:14;;;;;;;;;;;;;;;;;;4996575;28;19914;-92
2024/03/05 22:38:40;;;;;;;;;;;;;;;;;;4998793;28;19971;-93
2024/03/05 22:41:05;;;;;;;;;;;;;;;;;;4998761;28;20016;-91
2024/03/05 22:43:31;;;;;;;;;;;;;;;;;;4995082;28;19918;-95
2024/03/05 22:45:56;;;;;;;;;;;;;;;;;;4997083;28;20012;-93
2024/03/05 22:48:22;;;;;;;;;;;;;;;;;;5000155;28;19914;-91
2024/03/05 22:50:50;;;;;;;;;;;;;;;;;;5007111;28;19914;-90
2024/03/05 22:53:16;;;;;;;;;;;;;;;;;;5008928;28;19921;-88
2024/03/05 22:55:42;;;;;;;;;;;;;;;;;;5005916;28;20016;-88
2024/03/05 22:58:15;;;;;;;;;;;;;;;;;;5006856;28;19918;-91
2024/03/05 23:00:43;;;;;;;;;;;;;;;;;;5007561;28;19941;-86
2024/03/05 23:03:11;;;;;;;;;;;;;;;;;;5023526;28;19948;-87
2024/03/05 23:05:37;;;;;;;;;;;;;;;;;;5014050;28;19913;-87
2024/03/05 23:08:09;;;;;;;;;;;;;;;;;;5030048;28;19981;-87
2024/03/05 23:10:37;;;;;;;;;;;;;;;;;;5011902;28;19913;-85
2024/03/05 23:13:03;;;;;;;;;;;;;;;;;;5012750;28;20001;-86
2024/03/05 23:15:36;;;;;;;;;;;;;;;;;;5014678;28;19925;-87
2024/03/05 23:18:03;;;;;;;;;;;;;;;;;;5014360;28;19914;-86
2024/03/05 23:20:30;;;;;;;;;;;;;;;;;;5013661;28;19941;-87
2024/03/05 23:22:57;;;;;;;;;;;;;;;;;;5015878;28;19914;-87
2024/03/05 23:25:27;;;;;;;;;;;;;;;;;;5015309;28;19973;-87
2024/03/05 23:28:13;;;;;;;;;;;;;;;;;;5015798;28;19921;-87
2024/03/05 23:30:39;;;;;;;;;;;;;;;;;;4996113;28;19921;-88
2024/03/05 23:33:19;;;;;;;;;;;;;;;;;;5005340;28;19913;-93
2024/03/05 23:35:45;;;;;;;;;;;;;;;;;;4998489;28;20030;-92
2024/03/05 23:38:10;;;;;;;;;;;;;;;;;;4984520;28;20401;-88
2024/03/05 23:40:36;;;;;;;;;;;;;;;;;;4981435;28;19914;-88
2024/03/05 23:43:02;;;;;;;;;;;;;;;;;;5001539;23;19965;-89
2024/03/05 23:46:06;;;;;;;;;;;;;;;;;;4951595;29;19919;-88
2024/03/05 23:48:55;;;;;;;;;;;;;;;;;;4983643;23;19922;-89
2024/03/05 23:51:22;;;;;;;;;;;;;;;;;;4995782;28;19937;-89
2024/03/05 23:53:48;;;;;;;;;;;;;;;;;;4977956;28;19913;-88
2024/03/05 23:56:34;;;;;;;;;;;;;;;;;;5012558;23;19929;-88
2024/03/05 23:59:10;;;;;;;;;;;;;;;;;;4993221;28;20355;-88
